Time;durP1;ratioP1;P1;durP2;ratioP2;P2;SDS_P1;SDS_P2;PMS_P1;PMS_P2;Temp;Humidity;BMP_temperature;BMP_pressure;BME280_temperature;BME280_humidity;BME280_pressure;Samples;Min_cycle;Max_cycle;Signal;HPM_P1;HPM_P2
2024/01/28 00:00:18;;;;;;;4.85;2.53;;;0.40;99.80;;;;;;5009963;28;20125;-68
2024/01/28 00:02:43;;;;;;;7.00;3.28;;;0.20;99.60;;;;;;4999132;28;20037;-69
2024/01/28 00:05:13;;;;;;;6.95;3.08;;;0.20;99.70;;;;;;5001129;28;20046;-67
2024/01/28 00:07:38;;;;;;;6.43;2.75;;;0.20;99.70;;;;;;5004854;28;20036;-67
2024/01/28 00:10:04;;;;;;;7.35;3.33;;;0.10;99.60;;;;;;5014053;28;20018;-66
2024/01/28 00:12:30;;;;;;;8.10;3.05;;;0.10;99.60;;;;;;5003826;28;20064;-66
2024/01/28 00:14:56;;;;;;;7.10;2.53;;;0.10;99.70;;;;;;4988010;28;20033;-67
2024/01/28 00:17:22;;;;;;;9.85;3.33;;;0.00;99.70;;;;;;4999763;28;20125;-66
2024/01/28 00:19:47;;;;;;;8.85;2.88;;;0.00;99.70;;;;;;5030973;28;20065;-67
2024/01/28 00:22:13;;;;;;;4.82;2.70;;;0.00;99.80;;;;;;5005263;28;20366;-67
2024/01/28 00:24:38;;;;;;;9.68;2.95;;;0.00;99.90;;;;;;4997245;28;20114;-66
2024/01/28 00:27:04;;;;;;;8.30;2.85;;;0.00;99.70;;;;;;5002997;28;20046;-67
2024/01/28 00:29:29;;;;;;;8.73;3.10;;;0.00;99.90;;;;;;5003475;28;20026;-69
2024/01/28 00:31:56;;;;;;;5.28;3.05;;;-3276.70;99.60;;;;;;4996557;28;20103;-67
2024/01/28 00:34:21;;;;;;;5.93;2.83;;;0.00;99.90;;;;;;4994210;28;21831;-67
2024/01/28 00:36:47;;;;;;;6.70;3.03;;;0.00;99.90;;;;;;4989943;28;20055;-67
2024/01/28 00:39:13;;;;;;;9.15;3.08;;;0.00;99.80;;;;;;5004233;28;20481;-67
2024/01/28 00:41:39;;;;;;;5.20;2.75;;;-3276.70;99.80;;;;;;5013213;28;20459;-67
2024/01/28 00:44:04;;;;;;;6.18;2.67;;;-3276.70;99.90;;;;;;5000312;28;20065;-67
2024/01/28 00:46:32;;;;;;;9.82;3.22;;;-3276.70;99.80;;;;;;5000196;28;20052;-68
2024/01/28 00:48:57;;;;;;;5.57;2.80;;;-3276.70;99.90;;;;;;5004594;28;20393;-67
2024/01/28 00:51:23;;;;;;;6.18;2.53;;;-3276.70;99.80;;;;;;4996347;28;20037;-67
2024/01/28 00:53:48;;;;;;;8.18;3.30;;;-3276.70;99.90;;;;;;5005721;28;20063;-67
2024/01/28 00:56:16;;;;;;;8.68;2.58;;;-3276.70;99.90;;;;;;4998898;28;20328;-67
2024/01/28 00:58:42;;;;;;;12.63;3.40;;;0.00;99.90;;;;;;5000924;28;20162;-67
2024/01/28 01:01:08;;;;;;;8.40;2.97;;;-3276.70;99.90;;;;;;4994961;28;20081;-67
2024/01/28 01:03:33;;;;;;;10.93;2.58;;;0.00;99.90;;;;;;5003043;28;20041;-67
2024/01/28 01:05:59;;;;;;;8.23;3.17;;;0.00;99.90;;;;;;4997632;28;20495;-68
2024/01/28 01:08:24;;;;;;;6.22;3.22;;;0.00;99.90;;;;;;4999105;28;20090;-66
2024/01/28 01:10:50;;;;;;;8.05;3.45;;;0.10;99.90;;;;;;4994310;28;20113;-68
2024/01/28 01:13:16;;;;;;;9.98;3.45;;;0.10;99.90;;;;;;4999714;28;20042;-67
2024/01/28 01:15:41;;;;;;;5.53;2.70;;;0.20;99.90;;;;;;5022259;28;20278;-67
2024/01/28 01:18:07;;;;;;;10.20;2.90;;;0.30;99.90;;;;;;5001117;28;20344;-67
2024/01/28 01:20:35;;;;;;;5.97;2.80;;;0.30;99.90;;;;;;5002659;28;20088;-67
2024/01/28 01:23:01;;;;;;;7.18;2.50;;;0.40;99.90;;;;;;4992511;28;20038;-67
2024/01/28 01:25:26;;;;;;;6.93;3.10;;;0.40;99.80;;;;;;4995675;28;20040;-67
2024/01/28 01:27:53;;;;;;;8.82;2.90;;;0.50;99.90;;;;;;5001958;28;20120;-67
2024/01/28 01:30:19;;;;;;;12.77;3.70;;;0.50;99.80;;;;;;5005234;28;20128;-67
2024/01/28 01:32:45;;;;;;;10.18;2.88;;;0.60;99.70;;;;;;5002312;28;20116;-68
2024/01/28 01:35:14;;;;;;;11.20;3.95;;;0.70;99.70;;;;;;5004653;28;20038;-67
2024/01/28 01:37:40;;;;;;;6.40;2.90;;;0.70;99.50;;;;;;5011880;28;20057;-67
2024/01/28 01:40:07;;;;;;;5.13;2.60;;;0.70;99.40;;;;;;4996762;28;20038;-67
2024/01/28 01:42:33;;;;;;;6.53;3.30;;;0.80;99.40;;;;;;4999327;28;20466;-66
2024/01/28 01:44:58;;;;;;;9.40;3.30;;;0.90;99.10;;;;;;4997283;28;20069;-67
2024/01/28 01:47:25;;;;;;;8.05;3.03;;;0.80;98.80;;;;;;5000088;28;20351;-66
2024/01/28 01:49:51;;;;;;;7.68;3.13;;;0.80;98.70;;;;;;4999327;28;20153;-67
2024/01/28 01:52:18;;;;;;;5.90;2.95;;;0.70;98.50;;;;;;5009269;28;20112;-67
2024/01/28 01:54:45;;;;;;;10.02;3.17;;;0.70;98.50;;;;;;5006186;28;20267;-67
2024/01/28 01:57:11;;;;;;;6.00;3.08;;;0.60;98.40;;;;;;5017084;28;20488;-67
2024/01/28 01:59:38;;;;;;;11.85;3.08;;;0.50;98.50;;;;;;5015134;28;20614;-69
2024/01/28 02:02:07;;;;;;;8.95;2.60;;;0.40;98.50;;;;;;5002033;28;20025;-67
2024/01/28 02:04:33;;;;;;;10.05;3.78;;;0.40;98.50;;;;;;5031202;28;20105;-66
2024/01/28 02:06:58;;;;;;;8.27;2.95;;;0.30;98.60;;;;;;5003643;28;20092;-68
2024/01/28 02:09:24;;;;;;;8.07;3.50;;;0.30;98.60;;;;;;5000964;28;20076;-67
2024/01/28 02:11:50;;;;;;;6.22;3.20;;;0.30;98.60;;;;;;4995665;28;21211;-67
2024/01/28 02:14:23;;;;;;;6.45;2.88;;;0.20;98.70;;;;;;5035581;28;20419;-67
2024/01/28 02:16:48;;;;;;;9.93;3.65;;;0.30;98.80;;;;;;5002857;28;20467;-67
2024/01/28 02:19:14;;;;;;;7.97;3.83;;;0.30;98.80;;;;;;5001836;28;20041;-67
2024/01/28 02:21:40;;;;;;;9.18;3.63;;;0.20;98.70;;;;;;5002441;28;20082;-67
2024/01/28 02:24:05;;;;;;;7.15;3.40;;;0.20;98.70;;;;;;4996747;28;20045;-67
2024/01/28 02:26:31;;;;;;;8.07;3.80;;;0.20;98.70;;;;;;4997944;28;20479;-67
2024/01/28 02:28:56;;;;;;;10.63;3.40;;;0.10;98.70;;;;;;4999720;28;20091;-66
2024/01/28 02:31:22;;;;;;;10.15;4.28;;;0.10;98.80;;;;;;4999042;28;20025;-68
2024/01/28 02:33:47;;;;;;;6.90;3.53;;;0.10;98.80;;;;;;5030824;28;20175;-68
2024/01/28 02:36:13;;;;;;;8.02;3.40;;;0.10;98.90;;;;;;4979887;28;20164;-67
2024/01/28 02:38:38;;;;;;;12.88;4.00;;;0.10;98.80;;;;;;4998944;28;20438;-67
2024/01/28 02:41:04;;;;;;;10.50;3.85;;;0.00;98.80;;;;;;5005750;28;20038;-67
2024/01/28 02:43:29;;;;;;;9.07;3.20;;;0.00;99.00;;;;;;4999623;28;20045;-67
2024/01/28 02:45:55;;;;;;;6.70;3.20;;;-3276.70;98.70;;;;;;5003550;28;20050;-67
2024/01/28 02:48:20;;;;;;;6.63;3.28;;;-3276.60;98.80;;;;;;5038429;28;20041;-67
2024/01/28 02:50:45;;;;;;;8.98;3.30;;;-3276.50;98.90;;;;;;4996091;28;20301;-69
2024/01/28 02:53:11;;;;;;;10.00;4.25;;;-3276.40;98.90;;;;;;5030384;28;20539;-67
2024/01/28 02:55:36;;;;;;;10.52;3.95;;;-3276.40;99.00;;;;;;5000060;28;20518;-66
2024/01/28 02:58:02;;;;;;;7.22;3.50;;;-3276.30;99.10;;;;;;5006279;28;20084;-67
2024/01/28 03:00:29;;;;;;;9.20;3.22;;;-3276.30;99.20;;;;;;4997857;28;20129;-67
2024/01/28 03:02:54;;;;;;;9.18;3.60;;;-3276.20;99.10;;;;;;4999647;28;20026;-67
2024/01/28 03:05:20;;;;;;;6.47;2.72;;;-3276.10;99.10;;;;;;4998289;28;20506;-67
2024/01/28 03:07:45;;;;;;;9.82;3.35;;;-3276.10;99.20;;;;;;4997764;28;20116;-67
2024/01/28 03:10:11;;;;;;;9.05;3.42;;;-3276.20;99.40;;;;;;5004025;28;20092;-67
2024/01/28 03:12:37;;;;;;;9.30;2.83;;;-3276.30;99.80;;;;;;5000238;28;20481;-67
2024/01/28 03:15:03;;;;;;;8.10;3.40;;;-3276.40;99.70;;;;;;5014530;28;20038;-67
2024/01/28 03:17:29;;;;;;;12.73;3.35;;;-3276.50;99.70;;;;;;4997501;28;20442;-67
2024/01/28 03:19:54;;;;;;;5.90;2.80;;;-3276.70;99.80;;;;;;5002298;28;20026;-67
2024/01/28 03:22:20;;;;;;;8.77;3.47;;;-3276.70;99.60;;;;;;5005139;28;20131;-67
2024/01/28 03:24:47;;;;;;;10.05;3.40;;;-3276.70;99.60;;;;;;5002032;28;20396;-67
2024/01/28 03:27:13;;;;;;;5.53;3.35;;;-3276.70;99.60;;;;;;5002223;28;20083;-67
2024/01/28 03:29:38;;;;;;;12.40;3.53;;;-3276.70;99.50;;;;;;5001632;28;20070;-67
2024/01/28 03:32:04;;;;;;;8.32;3.25;;;-3276.70;99.60;;;;;;5002666;28;20029;-67
2024/01/28 03:34:30;;;;;;;16.42;3.88;;;-3276.60;99.40;;;;;;5002825;28;20117;-68
2024/01/28 03:36:55;;;;;;;9.88;3.55;;;-3276.60;99.60;;;;;;4981697;28;20037;-67
2024/01/28 03:39:21;;;;;;;8.63;3.80;;;-3276.60;99.40;;;;;;5016408;28;20096;-67
2024/01/28 03:41:46;;;;;;;11.23;3.55;;;-3276.50;99.40;;;;;;5012162;28;20493;-67
2024/01/28 03:44:15;;;;;;;11.15;3.80;;;-3276.40;99.30;;;;;;5001131;28;20041;-67
2024/01/28 03:46:40;;;;;;;8.15;3.80;;;-3276.30;99.30;;;;;;4995249;28;20086;-67
2024/01/28 03:49:06;;;;;;;14.52;3.40;;;-3276.20;99.30;;;;;;4999666;28;20035;-67
2024/01/28 03:51:31;;;;;;;7.82;3.47;;;-3276.20;99.50;;;;;;4997567;28;20462;-67
2024/01/28 03:53:57;;;;;;;9.27;3.00;;;-3276.20;99.50;;;;;;4999888;28;20040;-67
2024/01/28 03:56:24;;;;;;;5.95;3.25;;;-3276.20;99.50;;;;;;5004929;28;20427;-67
2024/01/28 03:58:49;;;;;;;8.20;3.95;;;-3276.30;99.70;;;;;;5003356;28;20026;-66
2024/01/28 04:01:15;;;;;;;9.30;3.58;;;-3276.40;99.80;;;;;;5003706;28;20033;-68
2024/01/28 04:03:40;;;;;;;9.98;3.10;;;-3276.40;99.70;;;;;;5012155;28;20061;-67
2024/01/28 04:06:06;;;;;;;9.32;3.75;;;-3276.40;99.80;;;;;;4993706;28;20474;-67
2024/01/28 04:08:31;;;;;;;9.25;3.80;;;-3276.50;99.80;;;;;;5031009;28;20030;-68
2024/01/28 04:10:57;;;;;;;6.43;3.67;;;-3276.40;99.70;;;;;;5006816;28;20152;-67
2024/01/28 04:13:22;;;;;;;9.48;3.90;;;-3276.50;99.80;;;;;;5001521;28;20475;-68
2024/01/28 04:15:48;;;;;;;6.10;2.97;;;-3276.50;99.70;;;;;;4995909;28;20067;-68
2024/01/28 04:18:13;;;;;;;11.43;3.33;;;-3276.40;99.60;;;;;;5001501;28;20090;-67
2024/01/28 04:20:38;;;;;;;6.60;3.28;;;-3276.40;99.60;;;;;;4999582;28;20037;-67
2024/01/28 04:23:04;;;;;;;8.63;3.63;;;-3276.40;99.60;;;;;;5000563;28;20033;-68
2024/01/28 04:25:29;;;;;;;9.82;3.85;;;-3276.50;99.80;;;;;;4996930;28;20120;-68
2024/01/28 04:27:55;;;;;;;5.75;3.05;;;-3276.50;99.70;;;;;;5000435;28;20097;-67
2024/01/28 04:30:21;;;;;;;7.95;3.20;;;-3276.50;99.60;;;;;;5001436;28;20391;-67
2024/01/28 04:32:47;;;;;;;7.60;2.80;;;-3276.50;99.50;;;;;;5004732;28;20049;-67
2024/01/28 04:35:13;;;;;;;7.22;3.42;;;-3276.50;99.50;;;;;;4999788;28;20046;-69
2024/01/28 04:37:39;;;;;;;7.55;2.78;;;-3276.60;99.70;;;;;;4973287;28;20448;-67
2024/01/28 04:40:06;;;;;;;11.40;3.47;;;-3276.60;99.60;;;;;;4996530;28;20081;-67
2024/01/28 04:42:32;;;;;;;6.95;2.90;;;-3276.50;99.40;;;;;;5000226;28;20030;-67
2024/01/28 04:44:58;;;;;;;6.97;3.58;;;-3276.50;99.40;;;;;;5002520;28;20026;-67
2024/01/28 04:47:23;;;;;;;8.88;2.40;;;-3276.60;99.50;;;;;;5003724;28;20109;-67
2024/01/28 04:49:48;;;;;;;6.82;3.05;;;-3276.70;99.40;;;;;;4996951;28;20087;-68
2024/01/28 04:52:14;;;;;;;8.63;3.03;;;-3276.70;99.30;;;;;;4999931;28;20029;-68
2024/01/28 04:54:39;;;;;;;6.22;3.03;;;-3276.70;99.30;;;;;;4994781;28;20033;-67
2024/01/28 04:57:05;;;;;;;7.47;2.47;;;-3276.60;99.10;;;;;;5000846;28;20034;-67
2024/01/28 04:59:30;;;;;;;6.03;3.03;;;-3276.60;99.10;;;;;;5011800;28;20041;-69
2024/01/28 05:01:56;;;;;;;6.95;2.33;;;-3276.60;99.10;;;;;;5002840;28;20030;-67
2024/01/28 05:04:22;;;;;;;7.57;2.97;;;-3276.60;99.00;;;;;;5005324;28;20037;-67
2024/01/28 05:06:48;;;;;;;4.80;2.60;;;-3276.60;99.00;;;;;;5018121;28;20180;-68
2024/01/28 05:09:15;;;;;;;5.13;2.55;;;-3276.60;98.90;;;;;;5015038;28;20065;-67
2024/01/28 05:11:40;;;;;;;4.45;2.55;;;-3276.50;98.90;;;;;;5003715;28;20081;-67
2024/01/28 05:14:06;;;;;;;11.95;3.28;;;-3276.50;99.00;;;;;;5017725;28;20423;-67
2024/01/28 05:16:31;;;;;;;6.63;3.03;;;-3276.50;99.00;;;;;;4990233;28;20367;-67
2024/01/28 05:18:57;;;;;;;6.45;2.50;;;-3276.40;98.90;;;;;;5005506;28;20568;-67
2024/01/28 05:21:25;;;;;;;7.25;2.67;;;-3276.40;99.10;;;;;;5003439;28;20335;-68
2024/01/28 05:23:51;;;;;;;19.67;4.00;;;-3276.40;99.10;;;;;;4998910;28;20038;-68
2024/01/28 05:26:17;;;;;;;8.27;2.60;;;-3276.40;99.00;;;;;;4993335;28;20432;-67
2024/01/28 05:28:42;;;;;;;5.53;3.15;;;-3276.40;99.00;;;;;;4997998;28;20042;-67
2024/01/28 05:31:09;;;;;;;4.88;2.10;;;-3276.50;99.20;;;;;;5003516;28;20491;-67
2024/01/28 05:33:37;;;;;;;7.20;2.25;;;-3276.40;99.10;;;;;;5017194;28;20354;-67
2024/01/28 05:36:13;;;;;;;5.80;2.38;;;-3276.40;99.10;;;;;;4996508;28;20068;-67
2024/01/28 05:38:39;;;;;;;6.80;2.20;;;-3276.40;99.00;;;;;;5001300;28;20501;-67
2024/01/28 05:41:06;;;;;;;16.35;2.78;;;-3276.30;99.00;;;;;;5006872;28;20309;-68
2024/01/28 05:43:32;;;;;;;4.25;2.38;;;-3276.20;99.00;;;;;;5005163;28;20105;-67
2024/01/28 05:45:58;;;;;;;5.55;2.88;;;-3276.20;99.00;;;;;;5001147;28;20116;-68
2024/01/28 05:48:24;;;;;;;6.57;2.70;;;-3276.20;99.10;;;;;;5006598;28;20450;-67
2024/01/28 05:50:49;;;;;;;10.20;2.75;;;-3276.10;99.10;;;;;;5001973;28;20209;-68
2024/01/28 05:53:15;;;;;;;4.95;2.22;;;-3276.10;99.20;;;;;;5004174;28;20447;-67
2024/01/28 05:55:40;;;;;;;6.85;3.03;;;-3276.20;99.40;;;;;;5004567;28;20062;-67
2024/01/28 05:58:06;;;;;;;7.70;2.50;;;-3276.10;99.30;;;;;;5006967;28;20454;-66
2024/01/28 06:00:31;;;;;;;7.57;2.55;;;-3276.10;99.30;;;;;;4995787;28;20034;-67
2024/01/28 06:02:57;;;;;;;3.97;2.05;;;-3276.20;99.30;;;;;;5018039;28;20513;-67
2024/01/28 06:05:22;;;;;;;9.20;2.75;;;-3276.10;99.40;;;;;;5006928;28;20030;-67
2024/01/28 06:07:47;;;;;;;6.47;2.10;;;-3276.10;99.40;;;;;;5002651;28;20162;-67
2024/01/28 06:10:13;;;;;;;8.10;2.65;;;-3276.10;99.40;;;;;;5001567;28;20038;-67
2024/01/28 06:12:39;;;;;;;5.13;2.42;;;-3276.00;99.30;;;;;;5006261;28;20097;-67
2024/01/28 06:15:08;;;;;;;9.65;2.50;;;-3276.00;99.40;;;;;;5014967;28;20057;-69
2024/01/28 06:17:36;;;;;;;6.18;2.35;;;-3276.10;99.60;;;;;;5001101;28;20128;-67
2024/01/28 06:20:05;;;;;;;7.35;2.10;;;-3276.10;99.40;;;;;;5009263;28;20079;-67
2024/01/28 06:22:31;;;;;;;5.95;2.00;;;-3276.10;99.50;;;;;;4999759;28;20120;-67
2024/01/28 06:25:00;;;;;;;7.38;2.65;;;-3276.10;99.50;;;;;;5002282;28;20030;-67
2024/01/28 06:27:26;;;;;;;3.95;2.28;;;-3276.20;99.50;;;;;;5003120;28;20451;-69
2024/01/28 06:29:52;;;;;;;6.30;2.45;;;-3276.10;99.50;;;;;;4994504;28;20327;-67
2024/01/28 06:32:21;;;;;;;4.95;2.72;;;-3276.20;99.50;;;;;;5003626;28;20045;-68
2024/01/28 06:34:50;;;;;;;9.23;2.67;;;-3276.20;99.40;;;;;;4998830;28;20053;-67
2024/01/28 06:37:16;;;;;;;6.95;2.20;;;-3276.10;99.40;;;;;;4970931;28;20422;-67
2024/01/28 06:39:42;;;;;;;7.18;2.58;;;-3276.10;99.40;;;;;;4998719;28;20046;-67
2024/01/28 06:42:08;;;;;;;8.10;2.47;;;-3276.20;99.50;;;;;;5004353;28;20029;-67
2024/01/28 06:44:33;;;;;;;6.65;2.45;;;-3276.20;99.50;;;;;;4999851;28;20060;-68
2024/01/28 06:47:00;;;;;;;6.40;2.30;;;-3276.20;99.40;;;;;;5031514;28;20120;-67
2024/01/28 06:49:25;;;;;;;7.25;2.45;;;-3276.20;99.40;;;;;;4999888;28;20430;-67
2024/01/28 06:51:51;;;;;;;8.80;3.30;;;-3276.10;99.40;;;;;;5006272;28;20045;-67
2024/01/28 06:54:18;;;;;;;5.45;2.55;;;-3276.00;99.40;;;;;;5013631;28;20027;-68
2024/01/28 06:56:44;;;;;;;5.40;2.30;;;-3276.00;99.40;;;;;;5001921;28;20397;-67
2024/01/28 06:59:10;;;;;;;7.72;2.92;;;-3276.00;99.40;;;;;;5001093;28;20106;-67
2024/01/28 07:01:35;;;;;;;5.63;2.40;;;-3275.90;99.40;;;;;;5001797;28;20041;-67
2024/01/28 07:04:01;;;;;;;14.45;2.88;;;-3275.90;99.40;;;;;;5005488;28;20037;-68
2024/01/28 07:06:26;;;;;;;6.97;2.95;;;-3275.90;99.50;;;;;;5000427;28;20064;-68
2024/01/28 07:08:52;;;;;;;9.15;3.20;;;-3275.90;99.60;;;;;;5001981;28;20133;-67
2024/01/28 07:11:17;;;;;;;9.98;2.85;;;-3276.00;99.70;;;;;;5005154;28;20136;-68
2024/01/28 07:13:43;;;;;;;8.00;2.65;;;-3275.90;99.60;;;;;;4998592;28;20041;-67
2024/01/28 07:16:09;;;;;;;5.57;2.22;;;-3276.00;99.50;;;;;;4998907;28;20042;-67
2024/01/28 07:18:35;;;;;;;6.57;2.58;;;-3276.00;99.60;;;;;;5001353;28;20057;-67
2024/01/28 07:21:02;;;;;;;8.27;2.70;;;-3276.00;99.70;;;;;;5000900;28;20045;-68
2024/01/28 07:23:27;;;;;;;14.25;3.58;;;-3276.00;99.60;;;;;;4995530;28;20030;-67
2024/01/28 07:25:53;;;;;;;7.55;2.35;;;-3276.00;99.60;;;;;;4998728;28;20152;-68
2024/01/28 07:28:18;;;;;;;2.78;1.85;;;-3276.10;99.70;;;;;;5000250;28;20123;-67
2024/01/28 07:30:44;;;;;;;3.88;1.80;;;-3276.10;99.60;;;;;;4995182;28;20045;-68
2024/01/28 07:33:10;;;;;;;6.05;2.65;;;-3276.20;99.70;;;;;;5015254;28;20040;-67
2024/01/28 07:35:35;;;;;;;9.45;3.10;;;-3276.20;99.60;;;;;;5007656;28;20030;-67
2024/01/28 07:38:01;;;;;;;4.63;2.10;;;-3276.20;99.60;;;;;;4972388;28;20050;-68
2024/01/28 07:40:26;;;;;;;4.65;2.40;;;-3276.20;99.50;;;;;;4992801;28;20132;-67
2024/01/28 07:42:55;;;;;;;3.65;1.92;;;-3276.30;99.60;;;;;;5016838;28;20032;-68
2024/01/28 07:45:21;;;;;;;7.88;2.63;;;-3276.40;99.60;;;;;;4999197;28;20447;-67
2024/01/28 07:47:46;;;;;;;6.57;1.80;;;-3276.50;99.50;;;;;;4994793;28;20144;-67
2024/01/28 07:50:12;;;;;;;4.32;2.03;;;-3276.60;99.40;;;;;;5001914;28;20203;-69
2024/01/28 07:52:37;;;;;;;8.95;2.55;;;-3276.60;99.40;;;;;;5002024;28;20063;-68
2024/01/28 07:55:03;;;;;;;5.28;2.20;;;-3276.70;99.30;;;;;;4991136;28;20034;-67
2024/01/28 07:57:29;;;;;;;8.07;2.60;;;-3276.70;99.20;;;;;;5004066;28;20029;-68
2024/01/28 07:59:54;;;;;;;5.30;2.15;;;0.00;99.00;;;;;;5003622;28;20459;-67
2024/01/28 08:02:19;;;;;;;11.05;2.95;;;0.10;99.00;;;;;;5002864;28;20077;-67
2024/01/28 08:04:47;;;;;;;5.93;2.38;;;0.10;98.80;;;;;;5001915;28;20049;-67
2024/01/28 08:07:12;;;;;;;3.92;2.17;;;0.20;98.60;;;;;;4991756;28;20405;-68
2024/01/28 08:09:38;;;;;;;6.93;1.92;;;0.30;98.50;;;;;;5026961;28;20052;-67
2024/01/28 08:12:04;;;;;;;3.33;1.67;;;0.30;98.20;;;;;;4994932;28;20463;-69
2024/01/28 08:14:29;;;;;;;6.20;2.30;;;0.40;98.10;;;;;;4998380;28;20141;-68
2024/01/28 08:16:55;;;;;;;4.88;1.75;;;0.40;97.90;;;;;;4997156;28;20374;-69
2024/01/28 08:19:20;;;;;;;8.68;2.53;;;0.50;97.60;;;;;;4994407;28;20061;-69
2024/01/28 08:21:47;;;;;;;7.00;2.20;;;0.60;97.30;;;;;;4994804;28;20438;-67
2024/01/28 08:24:12;;;;;;;3.70;2.00;;;0.50;97.20;;;;;;4997291;28;20081;-67
2024/01/28 08:26:38;;;;;;;7.35;2.00;;;0.60;97.00;;;;;;4994936;28;20390;-71
2024/01/28 08:29:04;;;;;;;8.25;2.38;;;0.60;96.90;;;;;;4995393;28;20038;-69
2024/01/28 08:31:30;;;;;;;4.22;1.85;;;0.60;96.90;;;;;;4996792;28;20100;-69
2024/01/28 08:33:55;;;;;;;4.38;2.28;;;0.60;96.80;;;;;;5001929;28;20030;-69
2024/01/28 08:36:21;;;;;;;3.67;1.60;;;0.70;96.70;;;;;;4969901;28;20050;-69
2024/01/28 08:38:46;;;;;;;3.80;1.73;;;0.70;96.50;;;;;;4993418;28;20050;-67
2024/01/28 08:41:12;;;;;;;5.63;1.98;;;0.70;96.50;;;;;;5009704;28;20117;-67
2024/01/28 08:43:37;;;;;;;3.03;1.73;;;0.80;95.90;;;;;;4995777;28;20515;-67
2024/01/28 08:46:03;;;;;;;4.72;1.48;;;0.80;95.90;;;;;;4996814;28;20113;-67
2024/01/28 08:48:29;;;;;;;4.38;1.48;;;0.80;95.90;;;;;;5001374;28;20034;-67
2024/01/28 08:50:55;;;;;;;3.10;1.70;;;0.80;95.90;;;;;;4995080;28;20106;-67
2024/01/28 08:53:21;;;;;;;5.40;1.50;;;0.80;95.80;;;;;;5000808;28;20446;-68
2024/01/28 08:55:46;;;;;;;3.03;1.63;;;0.80;95.90;;;;;;5000236;28;20328;-67
2024/01/28 08:58:12;;;;;;;3.45;1.23;;;0.80;95.80;;;;;;4999279;28;20042;-67
2024/01/28 09:00:39;;;;;;;7.68;2.08;;;0.90;95.60;;;;;;5001039;28;20045;-67
2024/01/28 09:03:04;;;;;;;5.18;1.55;;;1.00;95.90;;;;;;4995400;28;20026;-67
2024/01/28 09:05:30;;;;;;;4.32;1.80;;;1.00;95.90;;;;;;5003323;28;20034;-68
2024/01/28 09:07:56;;;;;;;3.70;1.50;;;1.10;95.70;;;;;;4996260;28;20146;-67
2024/01/28 09:10:23;;;;;;;7.32;1.95;;;1.10;95.30;;;;;;5015804;28;20029;-67
2024/01/28 09:12:48;;;;;;;5.20;1.75;;;1.20;95.50;;;;;;4999831;28;20034;-68
2024/01/28 09:15:14;;;;;;;5.30;1.75;;;1.30;95.10;;;;;;4997223;28;20496;-67
2024/01/28 09:17:39;;;;;;;2.33;1.15;;;1.40;95.10;;;;;;5006812;28;20034;-68
2024/01/28 09:20:05;;;;;;;3.72;1.42;;;1.50;95.00;;;;;;4997863;28;20052;-67
2024/01/28 09:22:34;;;;;;;2.38;1.35;;;1.60;94.90;;;;;;5001559;28;20029;-68
2024/01/28 09:24:59;;;;;;;4.07;1.60;;;1.70;94.60;;;;;;4998927;28;20030;-68
2024/01/28 09:27:25;;;;;;;3.33;1.35;;;1.80;94.10;;;;;;4992137;28;20443;-67
2024/01/28 09:29:51;;;;;;;3.13;1.20;;;1.90;94.00;;;;;;4990754;28;20407;-68
2024/01/28 09:32:19;;;;;;;8.23;1.42;;;2.00;93.80;;;;;;4998921;28;20566;-67
2024/01/28 09:34:45;;;;;;;4.28;1.77;;;2.10;92.80;;;;;;4991661;28;20387;-67
2024/01/28 09:37:11;;;;;;;3.13;1.40;;;2.10;92.30;;;;;;4970763;28;20070;-68
2024/01/28 09:39:36;;;;;;;9.82;1.40;;;2.20;92.30;;;;;;4997967;28;20026;-67
2024/01/28 09:42:16;;;;;;;3.10;1.35;;;2.20;92.20;;;;;;4994229;28;20089;-67
2024/01/28 09:44:42;;;;;;;3.87;1.67;;;2.30;91.90;;;;;;4996928;28;20490;-70
2024/01/28 09:47:08;;;;;;;3.15;1.38;;;2.60;91.80;;;;;;4995065;28;20092;-70
2024/01/28 09:49:43;;;;;;;2.97;1.48;;;2.60;91.30;;;;;;5000269;28;20104;-69
2024/01/28 09:52:13;;;;;;;5.07;1.92;;;2.60;91.20;;;;;;4999792;28;20102;-70
2024/01/28 09:54:44;;;;;;;3.33;1.13;;;2.80;91.60;;;;;;4989107;28;20047;-70
2024/01/28 09:57:10;;;;;;;4.25;1.70;;;2.90;90.10;;;;;;4992364;28;20052;-69
2024/01/28 09:59:36;;;;;;;3.15;1.27;;;3.10;89.60;;;;;;4998216;28;20121;-70
2024/01/28 10:02:04;;;;;;;2.97;1.50;;;3.10;88.20;;;;;;4995501;28;20120;-70
2024/01/28 10:04:30;;;;;;;2.28;1.10;;;3.30;89.20;;;;;;4998426;28;20365;-69
2024/01/28 10:06:58;;;;;;;3.17;1.10;;;3.40;88.70;;;;;;4994805;28;20034;-69
2024/01/28 10:09:24;;;;;;;2.65;1.23;;;3.50;88.10;;;;;;4993081;28;20528;-69
2024/01/28 10:11:51;;;;;;;2.08;1.20;;;3.60;86.70;;;;;;4999064;28;20119;-69
2024/01/28 10:14:17;;;;;;;2.17;1.33;;;3.70;87.20;;;;;;4997477;28;20109;-69
2024/01/28 10:16:45;;;;;;;3.13;1.58;;;3.80;86.80;;;;;;4996136;28;20414;-70
2024/01/28 10:19:11;;;;;;;3.05;1.20;;;3.90;87.40;;;;;;5005169;28;20100;-68
2024/01/28 10:21:36;;;;;;;2.55;1.08;;;4.10;87.90;;;;;;5003246;28;20073;-69
2024/01/28 10:24:02;;;;;;;2.05;1.02;;;4.10;86.70;;;;;;4998806;28;20080;-69
2024/01/28 10:26:27;;;;;;;2.33;1.20;;;4.20;85.80;;;;;;5007319;28;20037;-71
2024/01/28 10:28:53;;;;;;;2.67;1.75;;;4.30;85.40;;;;;;4992825;28;20371;-73
2024/01/28 10:31:22;;;;;;;1.70;1.27;;;4.40;85.60;;;;;;4999188;28;20114;-69
2024/01/28 10:33:48;;;;;;;1.98;1.25;;;4.60;84.00;;;;;;4999802;28;20054;-68
2024/01/28 10:36:17;;;;;;;3.08;0.88;;;4.70;84.70;;;;;;4975759;28;20030;-68
2024/01/28 10:38:45;;;;;;;0.88;0.50;;;4.80;82.30;;;;;;4998543;28;20106;-68
2024/01/28 10:41:18;;;;;;;1.98;1.02;;;4.90;82.50;;;;;;4997015;28;20494;-69
2024/01/28 10:44:07;;;;;;;2.30;0.85;;;4.90;81.80;;;;;;4996662;28;20491;-68
2024/01/28 10:46:39;;;;;;;1.33;0.82;;;5.00;82.50;;;;;;4990548;28;20214;-68
2024/01/28 10:49:07;;;;;;;1.23;0.80;;;5.00;80.90;;;;;;4998792;28;20026;-68
2024/01/28 10:51:33;;;;;;;5.60;1.23;;;5.00;80.60;;;;;;4996813;28;20540;-68
2024/01/28 10:54:00;;;;;;;2.42;0.82;;;5.10;80.20;;;;;;4996491;28;20324;-68
2024/01/28 10:56:27;;;;;;;1.80;0.70;;;5.10;79.50;;;;;;5001421;28;20102;-67
2024/01/28 10:58:52;;;;;;;3.03;0.70;;;5.30;79.90;;;;;;5000757;28;20030;-67
2024/01/28 11:01:18;;;;;;;1.23;0.68;;;5.30;79.20;;;;;;4998491;28;20403;-67
2024/01/28 11:03:45;;;;;;;1.83;1.00;;;5.40;79.20;;;;;;4999188;28;20041;-67
2024/01/28 11:06:14;;;;;;;2.10;0.90;;;5.60;78.50;;;;;;5004122;28;20044;-67
2024/01/28 11:08:40;;;;;;;1.75;0.90;;;5.60;77.30;;;;;;5001211;28;20112;-67
2024/01/28 11:11:05;;;;;;;2.00;0.70;;;5.80;76.90;;;;;;5027617;28;20042;-68
2024/01/28 11:13:31;;;;;;;2.08;0.82;;;5.90;77.70;;;;;;4999015;28;20431;-67
2024/01/28 11:15:57;;;;;;;0.88;0.57;;;5.90;75.50;;;;;;4999326;28;20037;-68
2024/01/28 11:18:29;;;;;;;2.33;0.95;;;6.00;77.00;;;;;;4995073;28;20054;-67
2024/01/28 11:20:55;;;;;;;2.08;0.80;;;6.10;76.50;;;;;;5002532;28;20049;-70
2024/01/28 11:23:20;;;;;;;1.20;0.50;;;6.20;74.50;;;;;;4997411;28;20061;-69
2024/01/28 11:25:47;;;;;;;1.70;0.80;;;6.20;74.70;;;;;;4993646;28;20069;-69
2024/01/28 11:28:14;;;;;;;0.90;0.60;;;6.40;74.90;;;;;;5030185;28;20068;-70
2024/01/28 11:30:40;;;;;;;2.92;0.68;;;6.40;73.80;;;;;;4993517;28;20052;-69
2024/01/28 11:33:11;;;;;;;1.20;0.50;;;6.40;72.80;;;;;;4994097;28;20108;-68
2024/01/28 11:35:38;;;;;;;0.68;0.50;;;6.60;74.10;;;;;;4999957;28;20039;-69
2024/01/28 11:38:05;;;;;;;0.95;0.47;;;6.60;72.40;;;;;;4977776;28;20053;-68
2024/01/28 11:40:38;;;;;;;3.35;0.73;;;6.60;71.70;;;;;;5007187;28;20540;-68
2024/01/28 11:43:06;;;;;;;1.58;0.50;;;6.80;72.10;;;;;;5004094;28;20137;-68
2024/01/28 11:45:31;;;;;;;1.25;0.80;;;6.90;73.50;;;;;;4993287;28;20037;-68
2024/01/28 11:47:57;;;;;;;2.88;0.90;;;7.10;71.60;;;;;;4999372;28;20390;-68
2024/01/28 11:50:23;;;;;;;2.75;0.70;;;7.30;72.10;;;;;;4994814;28;20030;-68
2024/01/28 11:52:49;;;;;;;1.42;0.60;;;7.40;70.80;;;;;;4998881;28;20367;-68
2024/01/28 11:55:16;;;;;;;3.30;0.65;;;7.50;70.70;;;;;;5005253;28;20044;-70
2024/01/28 11:57:44;;;;;;;2.05;0.63;;;7.60;69.70;;;;;;5005698;28;20026;-69
2024/01/28 12:00:10;;;;;;;2.10;0.80;;;7.70;68.80;;;;;;5005380;28;20040;-68
2024/01/28 12:02:37;;;;;;;1.45;0.70;;;7.60;67.50;;;;;;5002421;28;20044;-68
2024/01/28 12:05:03;;;;;;;2.08;0.82;;;7.60;68.00;;;;;;5002477;28;20018;-68
2024/01/28 12:07:31;;;;;;;0.82;0.35;;;7.70;67.30;;;;;;4994851;28;20524;-69
2024/01/28 12:09:58;;;;;;;2.00;0.50;;;7.80;66.90;;;;;;4997585;28;20461;-68
2024/01/28 12:12:24;;;;;;;0.88;0.43;;;8.10;66.90;;;;;;5006443;28;20057;-68
2024/01/28 12:14:50;;;;;;;2.83;0.65;;;8.30;66.30;;;;;;4998848;28;20534;-70
2024/01/28 12:17:15;;;;;;;0.63;0.52;;;8.20;65.70;;;;;;5005250;28;20462;-68
2024/01/28 12:19:40;;;;;;;2.95;0.70;;;8.10;64.50;;;;;;5006182;28;20080;-68
2024/01/28 12:22:11;;;;;;;2.28;0.50;;;8.10;65.90;;;;;;4995793;28;20030;-68
2024/01/28 12:24:36;;;;;;;1.83;0.97;;;8.20;66.10;;;;;;5003466;28;20026;-69
2024/01/28 12:27:04;;;;;;;1.50;0.60;;;8.40;64.80;;;;;;4996617;28;20092;-68
2024/01/28 12:29:30;;;;;;;1.95;0.60;;;8.30;65.20;;;;;;4994232;28;20065;-70
2024/01/28 12:31:55;;;;;;;3.25;0.77;;;8.60;65.60;;;;;;4999465;28;20359;-68